createdAt,value
2019-03-25T00:00:45.332Z,82.00
2019-03-25T00:03:13.896Z,82.60
2019-03-25T00:05:42.400Z,83.10
2019-03-25T00:08:10.855Z,83.80
2019-03-25T00:10:39.411Z,83.30
2019-03-25T00:13:07.900Z,83.80
2019-03-25T00:15:36.594Z,83.40
2019-03-25T00:18:05.166Z,83.90
2019-03-25T00:20:33.627Z,84.00
2019-03-25T00:23:02.087Z,83.90
2019-03-25T00:25:30.574Z,83.90
2019-03-25T00:27:59.139Z,83.80
2019-03-25T00:30:27.698Z,83.90
2019-03-25T00:32:56.154Z,84.30
2019-03-25T00:35:24.751Z,84.20
2019-03-25T00:37:53.240Z,84.80
2019-03-25T00:40:21.740Z,84.80
2019-03-25T00:42:50.250Z,85.40
2019-03-25T00:45:18.734Z,86.00
2019-03-25T00:47:47.194Z,85.70
2019-03-25T00:50:15.674Z,85.80
2019-03-25T00:52:44.139Z,85.20
2019-03-25T00:55:12.762Z,85.20
2019-03-25T00:57:41.316Z,85.60
2019-03-25T01:00:10.235Z,86.80
2019-03-25T01:02:38.878Z,88.10
2019-03-25T01:05:07.974Z,88.40
2019-03-25T01:07:36.435Z,89.20
2019-03-25T01:10:06.859Z,88.90
2019-03-25T01:12:35.490Z,88.90
2019-03-25T01:15:05.863Z,89.50
2019-03-25T01:17:34.363Z,89.20
2019-03-25T01:20:03.635Z,89.60
2019-03-25T01:22:32.129Z,89.90
2019-03-25T01:25:02.113Z,90.20
2019-03-25T01:27:30.812Z,90.30
2019-03-25T01:29:59.352Z,90.60
2019-03-25T01:32:28.047Z,90.60
2019-03-25T01:34:56.540Z,90.80
2019-03-25T01:37:25.002Z,91.00
2019-03-25T01:39:53.485Z,91.30
2019-03-25T01:42:21.951Z,91.60
2019-03-25T01:44:50.430Z,91.90
2019-03-25T01:47:18.995Z,92.10
2019-03-25T01:49:47.543Z,92.40
2019-03-25T01:52:16.271Z,92.40
2019-03-25T01:54:44.958Z,92.50
2019-03-25T01:57:13.637Z,92.50
2019-03-25T01:59:42.424Z,92.50
2019-03-25T02:02:12.553Z,92.70
2019-03-25T02:04:41.439Z,92.50
2019-03-25T02:07:12.190Z,92.60
2019-03-25T02:09:40.647Z,92.60
2019-03-25T02:12:09.441Z,92.60
2019-03-25T02:14:38.094Z,92.60
2019-03-25T02:17:06.810Z,92.90
2019-03-25T02:19:35.701Z,92.90
2019-03-25T02:22:04.796Z,93.20
2019-03-25T02:24:33.583Z,93.30
2019-03-25T02:27:02.221Z,93.60
2019-03-25T02:29:30.864Z,93.70
2019-03-25T02:31:59.634Z,93.70
2019-03-25T02:34:28.529Z,93.80
2019-03-25T02:36:57.210Z,94.10
2019-03-25T02:39:26.104Z,94.10
2019-03-25T02:41:54.785Z,94.40
2019-03-25T02:44:23.445Z,94.40
2019-03-25T02:46:52.157Z,94.70
2019-03-25T02:49:20.868Z,94.40
2019-03-25T02:51:50.509Z,94.30
2019-03-25T02:54:19.242Z,94.20
2019-03-25T02:56:48.024Z,94.00
2019-03-25T02:59:16.717Z,93.80
2019-03-25T03:01:45.707Z,93.80
2019-03-25T03:04:14.411Z,93.80
2019-03-25T03:06:43.090Z,93.80
2019-03-25T03:09:11.782Z,93.80
2019-03-25T03:11:40.503Z,93.90
2019-03-25T03:14:09.242Z,93.60
2019-03-25T03:16:37.902Z,93.40
2019-03-25T03:19:06.586Z,93.40
2019-03-25T03:21:35.197Z,93.40
2019-03-25T03:24:04.035Z,93.50
2019-03-25T03:26:32.684Z,93.60
2019-03-25T03:29:01.442Z,93.70
2019-03-25T03:31:30.149Z,93.70
2019-03-25T03:33:58.825Z,93.90
2019-03-25T03:36:27.617Z,94.00
2019-03-25T03:38:56.324Z,94.20
2019-03-25T03:41:24.973Z,94.40
2019-03-25T03:43:53.759Z,94.70
2019-03-25T03:46:22.557Z,94.90
2019-03-25T03:48:51.204Z,95.20
2019-03-25T03:51:20.131Z,95.20
2019-03-25T03:53:48.915Z,95.20
2019-03-25T03:56:17.806Z,95.10
2019-03-25T03:58:46.505Z,95.00
2019-03-25T04:01:15.061Z,94.70
2019-03-25T04:03:43.596Z,94.40
2019-03-25T04:06:12.187Z,94.30
2019-03-25T04:08:40.755Z,94.40
2019-03-25T04:11:09.258Z,94.20
2019-03-25T04:13:37.824Z,94.20
2019-03-25T04:16:06.496Z,94.10
2019-03-25T04:18:35.093Z,94.10
2019-03-25T04:21:03.684Z,94.00
2019-03-25T04:23:32.235Z,93.80
2019-03-25T04:26:00.729Z,94.20
2019-03-25T04:28:29.267Z,94.60
2019-03-25T04:30:57.838Z,94.80
2019-03-25T04:33:26.399Z,94.80
2019-03-25T04:35:54.936Z,95.10
2019-03-25T04:38:23.498Z,94.90
2019-03-25T04:40:51.952Z,95.00
2019-03-25T04:43:20.447Z,95.20
2019-03-25T04:45:49.770Z,95.10
2019-03-25T04:48:18.370Z,95.20
2019-03-25T04:50:46.926Z,95.30
2019-03-25T04:53:15.393Z,95.40
2019-03-25T04:55:43.875Z,95.40
2019-03-25T04:58:12.334Z,95.40
2019-03-25T05:00:40.939Z,96.00
2019-03-25T05:03:09.503Z,95.50
2019-03-25T05:05:37.963Z,95.00
2019-03-25T05:08:06.495Z,94.70
2019-03-25T05:10:35.050Z,94.60
2019-03-25T05:13:03.584Z,94.50
2019-03-25T05:15:32.128Z,94.40
2019-03-25T05:18:00.683Z,93.80
2019-03-25T05:20:29.172Z,94.00
2019-03-25T05:22:57.731Z,93.20
2019-03-25T05:25:26.186Z,93.10
2019-03-25T05:27:54.671Z,92.90
2019-03-25T05:30:23.138Z,93.00
2019-03-25T05:32:51.735Z,92.80
2019-03-25T05:35:20.266Z,92.80
2019-03-25T05:37:48.735Z,92.90
2019-03-25T05:40:17.250Z,93.20
2019-03-25T05:42:45.835Z,92.70
2019-03-25T05:45:14.647Z,92.70
2019-03-25T05:47:43.166Z,92.50
2019-03-25T05:50:11.786Z,92.30
2019-03-25T05:52:40.246Z,92.10
2019-03-25T05:55:08.927Z,91.90
2019-03-25T05:57:37.416Z,91.40
2019-03-25T06:00:06.511Z,91.40
2019-03-25T06:02:34.962Z,90.80
2019-03-25T06:05:03.819Z,90.30
2019-03-25T06:07:32.302Z,90.20
2019-03-25T06:10:00.802Z,90.00
2019-03-25T06:12:29.263Z,88.90
2019-03-25T06:14:57.746Z,88.30
2019-03-25T06:17:26.210Z,87.90
2019-03-25T06:19:54.675Z,87.50
2019-03-25T06:22:23.231Z,86.60
2019-03-25T06:24:51.730Z,85.90
2019-03-25T06:27:20.290Z,86.70
2019-03-25T06:29:48.758Z,86.10
2019-03-25T06:32:17.248Z,85.70
2019-03-25T06:34:45.827Z,84.80
2019-03-25T06:37:14.458Z,84.10
2019-03-25T06:39:43.047Z,84.30
2019-03-25T06:42:11.586Z,83.30
2019-03-25T06:44:40.211Z,82.60
2019-03-25T06:47:08.759Z,82.40
2019-03-25T06:49:37.247Z,82.00
2019-03-25T06:52:06.011Z,82.20
2019-03-25T06:54:34.499Z,81.60
2019-03-25T06:57:02.954Z,81.40
2019-03-25T06:59:31.485Z,81.90
2019-03-25T07:01:59.982Z,82.00
2019-03-25T07:04:28.455Z,81.90
2019-03-25T07:06:56.977Z,81.50
2019-03-25T07:09:25.602Z,81.20
2019-03-25T07:11:54.092Z,81.00
2019-03-25T07:14:22.628Z,80.40
2019-03-25T07:16:51.183Z,82.40
2019-03-25T07:19:19.807Z,87.60
2019-03-25T07:21:48.350Z,88.10
2019-03-25T07:24:16.807Z,89.30
2019-03-25T07:26:45.278Z,90.00
2019-03-25T07:29:13.758Z,88.70
2019-03-25T07:31:42.394Z,87.90
2019-03-25T07:34:10.956Z,88.80
2019-03-25T07:36:39.419Z,88.90
2019-03-25T07:39:07.971Z,91.00
2019-03-25T07:41:36.434Z,92.70
2019-03-25T07:44:05.042Z,93.20
2019-03-25T07:46:33.530Z,93.10
2019-03-25T07:49:02.015Z,93.00
2019-03-25T07:51:30.550Z,92.90
2019-03-25T07:53:59.086Z,93.10
2019-03-25T07:56:27.735Z,92.70
2019-03-25T07:58:56.287Z,93.00
2019-03-25T08:01:24.750Z,92.90
2019-03-25T08:03:53.295Z,93.00
2019-03-25T08:06:21.794Z,92.90
2019-03-25T08:08:50.287Z,92.50
2019-03-25T08:11:18.882Z,92.60
2019-03-25T08:13:47.442Z,92.50
2019-03-25T08:16:15.980Z,92.10
2019-03-25T08:18:44.503Z,91.40
2019-03-25T08:21:13.015Z,90.90
2019-03-25T08:23:41.500Z,89.50
2019-03-25T08:26:09.962Z,88.30
2019-03-25T08:28:38.518Z,87.90
2019-03-25T08:31:07.075Z,84.40
2019-03-25T08:33:35.604Z,82.20
2019-03-25T08:36:04.442Z,80.50
2019-03-25T08:38:33.040Z,81.50
2019-03-25T08:41:01.529Z,80.20
2019-03-25T08:43:29.996Z,77.10
2019-03-25T08:45:58.562Z,73.50
2019-03-25T08:48:27.103Z,67.10
2019-03-25T08:50:55.660Z,58.80
2019-03-25T08:53:24.195Z,53.30
2019-03-25T08:55:52.664Z,49.00
2019-03-25T08:58:21.223Z,48.20
2019-03-25T09:00:49.755Z,50.40
2019-03-25T09:03:18.243Z,50.00
2019-03-25T09:05:46.712Z,51.70
2019-03-25T09:08:15.253Z,54.80
2019-03-25T09:10:43.741Z,53.40
2019-03-25T09:13:12.294Z,54.80
2019-03-25T09:15:40.759Z,51.50
2019-03-25T09:18:09.461Z,48.80
2019-03-25T09:20:37.994Z,46.00
2019-03-25T09:23:06.631Z,48.60
2019-03-25T09:25:35.283Z,58.70
2019-03-25T09:28:03.915Z,69.70
2019-03-25T09:30:51.964Z,78.80
2019-03-25T09:33:20.762Z,82.50
2019-03-25T09:35:49.588Z,85.80
2019-03-25T09:38:18.314Z,79.40
2019-03-25T09:40:46.971Z,68.50
2019-03-25T09:43:15.555Z,61.10
2019-03-25T09:45:44.087Z,56.10
2019-03-25T09:48:12.575Z,51.10
2019-03-25T09:50:41.030Z,44.60
2019-03-25T09:53:09.547Z,43.20
2019-03-25T09:55:38.038Z,43.40
2019-03-25T09:58:06.606Z,41.60
2019-03-25T10:00:35.138Z,37.80
2019-03-25T10:03:03.818Z,37.60
2019-03-25T10:05:32.693Z,37.40
2019-03-25T10:08:01.269Z,37.20
2019-03-25T10:10:29.837Z,36.10
2019-03-25T10:12:58.502Z,36.20
2019-03-25T10:15:26.993Z,39.60
2019-03-25T10:17:55.555Z,42.60
2019-03-25T10:20:24.088Z,45.10
2019-03-25T10:22:52.631Z,46.80
2019-03-25T10:25:21.198Z,44.70
2019-03-25T10:27:49.788Z,42.10
2019-03-25T10:30:18.715Z,36.40
2019-03-25T10:32:47.207Z,34.90
2019-03-25T10:35:15.913Z,35.70
2019-03-25T10:37:45.358Z,38.70
2019-03-25T10:40:14.491Z,41.50
2019-03-25T10:42:43.058Z,43.00
2019-03-25T10:45:13.954Z,41.30
2019-03-25T10:47:42.617Z,40.20
2019-03-25T10:50:11.909Z,39.90
2019-03-25T10:52:40.401Z,38.40
2019-03-25T10:55:09.485Z,35.80
2019-03-25T10:57:38.026Z,37.90
2019-03-25T11:00:08.531Z,39.70
2019-03-25T11:02:37.114Z,42.80
2019-03-25T11:05:07.544Z,45.20
2019-03-25T11:07:36.109Z,44.30
2019-03-25T11:10:07.007Z,42.20
2019-03-25T11:12:35.474Z,37.20
2019-03-25T11:15:06.538Z,35.20
2019-03-25T11:17:35.002Z,33.60
2019-03-25T11:20:05.503Z,33.10
2019-03-25T11:22:34.219Z,33.70
2019-03-25T11:25:02.806Z,35.40
2019-03-25T11:27:31.297Z,37.50
2019-03-25T11:29:59.944Z,39.60
2019-03-25T11:32:28.567Z,41.90
2019-03-25T11:34:57.058Z,44.70
2019-03-25T11:37:25.595Z,46.20
2019-03-25T11:39:54.107Z,47.20
2019-03-25T11:42:22.646Z,48.40
2019-03-25T11:44:51.246Z,50.50
2019-03-25T11:47:19.722Z,52.60
2019-03-25T11:49:48.227Z,55.20
2019-03-25T11:52:16.751Z,56.20
2019-03-25T11:54:45.218Z,54.60
2019-03-25T11:57:13.703Z,54.60
2019-03-25T11:59:42.171Z,53.80
2019-03-25T12:02:17.569Z,53.60
2019-03-25T12:04:40.861Z,52.30
2019-03-25T12:07:09.473Z,53.50
2019-03-25T12:09:37.975Z,54.50
2019-03-25T12:12:06.572Z,53.00
2019-03-25T12:14:35.034Z,52.20
2019-03-25T12:17:03.606Z,54.90
2019-03-25T12:19:32.070Z,56.10
2019-03-25T12:22:00.550Z,63.20
2019-03-25T12:24:29.108Z,70.70
2019-03-25T12:26:57.574Z,75.40
2019-03-25T12:29:30.477Z,80.70
2019-03-25T12:31:56.419Z,84.80
2019-03-25T12:34:25.013Z,87.00
2019-03-25T12:36:53.714Z,88.10
2019-03-25T12:39:22.341Z,89.20
2019-03-25T12:41:50.991Z,89.80
2019-03-25T12:44:19.610Z,88.00
2019-03-25T12:46:48.170Z,88.80
2019-03-25T12:49:16.626Z,86.70
2019-03-25T12:51:45.187Z,84.90
2019-03-25T12:54:13.767Z,82.20
2019-03-25T12:56:42.227Z,81.40
2019-03-25T12:59:10.971Z,80.10
2019-03-25T13:01:39.526Z,78.90
2019-03-25T13:04:08.019Z,77.20
2019-03-25T13:06:36.554Z,76.80
2019-03-25T13:09:06.974Z,73.70
2019-03-25T13:11:35.498Z,72.30
2019-03-25T13:14:04.216Z,68.80
2019-03-25T13:16:32.782Z,69.90
2019-03-25T13:19:01.251Z,66.20
2019-03-25T13:21:29.714Z,63.60
2019-03-25T13:23:58.355Z,64.20
2019-03-25T13:26:26.815Z,62.90
2019-03-25T13:29:02.100Z,59.60
2019-03-25T13:31:25.502Z,59.50
2019-03-25T13:33:53.967Z,58.90
2019-03-25T13:36:22.464Z,61.80
2019-03-25T13:38:51.026Z,60.80
2019-03-25T13:41:19.494Z,60.30
2019-03-25T13:43:48.126Z,61.60
2019-03-25T13:46:16.995Z,63.00
2019-03-25T13:48:45.462Z,63.00
2019-03-25T13:51:13.948Z,64.50
2019-03-25T13:53:42.414Z,64.80
2019-03-25T13:56:10.899Z,56.50
2019-03-25T13:58:39.362Z,60.70
2019-03-25T14:01:07.920Z,68.80
2019-03-25T14:03:36.395Z,77.50
2019-03-25T14:06:05.479Z,82.20
2019-03-25T14:08:34.015Z,85.10
2019-03-25T14:11:02.506Z,89.00
2019-03-25T14:13:31.075Z,91.00
2019-03-25T14:15:59.702Z,92.10
2019-03-25T14:18:28.195Z,90.60
2019-03-25T14:20:56.769Z,90.80
2019-03-25T14:23:25.262Z,89.30
2019-03-25T14:25:53.895Z,89.00
2019-03-25T14:28:22.471Z,88.70
2019-03-25T14:30:51.100Z,86.70
2019-03-25T14:33:19.666Z,86.50
2019-03-25T14:35:48.455Z,86.90
2019-03-25T14:38:17.095Z,84.90
2019-03-25T14:40:45.812Z,80.60
2019-03-25T14:43:14.341Z,77.00
2019-03-25T14:45:42.994Z,76.60
2019-03-25T14:48:11.455Z,74.60
2019-03-25T14:50:39.982Z,72.80
2019-03-25T14:53:08.682Z,73.10
2019-03-25T14:55:37.154Z,72.70
2019-03-25T14:58:05.783Z,70.60
2019-03-25T15:00:34.316Z,69.50
2019-03-25T15:03:02.810Z,69.50
2019-03-25T15:05:31.344Z,69.30
2019-03-25T15:07:59.902Z,68.60
2019-03-25T15:10:28.510Z,69.50
2019-03-25T15:12:57.310Z,70.40
2019-03-25T15:15:25.912Z,70.60
2019-03-25T15:17:54.441Z,70.40
2019-03-25T15:20:23.027Z,69.80
2019-03-25T15:22:51.623Z,70.60
2019-03-25T15:25:20.114Z,73.20
2019-03-25T15:27:48.578Z,73.20
2019-03-25T15:30:17.402Z,72.40
2019-03-25T15:32:45.905Z,73.30
2019-03-25T15:35:14.807Z,74.00
2019-03-25T15:37:43.275Z,74.20
2019-03-25T15:40:13.234Z,75.40
2019-03-25T15:42:42.175Z,75.20
2019-03-25T15:45:10.899Z,76.80
2019-03-25T15:47:39.996Z,77.40
2019-03-25T15:50:10.377Z,77.10
2019-03-25T15:52:39.389Z,77.30
2019-03-25T15:55:08.691Z,76.80
2019-03-25T15:57:39.583Z,76.40
2019-03-25T16:00:16.494Z,74.60
2019-03-25T16:02:45.319Z,74.80
2019-03-25T16:05:14.624Z,74.60
2019-03-25T16:07:43.157Z,75.10
2019-03-25T16:10:13.584Z,76.40
2019-03-25T16:12:42.134Z,77.80
2019-03-25T16:15:12.340Z,80.50
2019-03-25T16:17:43.159Z,81.60
2019-03-25T16:20:12.194Z,81.10
2019-03-25T16:22:40.746Z,82.10
2019-03-25T16:25:11.011Z,81.80
2019-03-25T16:27:39.468Z,83.50
2019-03-25T16:30:08.678Z,84.80
2019-03-25T16:32:37.254Z,85.80
2019-03-25T16:35:06.699Z,86.80
2019-03-25T16:37:35.230Z,88.70
2019-03-25T16:40:04.883Z,88.50
2019-03-25T16:42:33.347Z,89.70
2019-03-25T16:45:01.882Z,91.10
2019-03-25T16:47:30.454Z,90.40
2019-03-25T16:49:59.015Z,91.20
2019-03-25T16:52:27.559Z,91.20
2019-03-25T16:54:56.143Z,91.20
2019-03-25T16:57:24.666Z,90.90
2019-03-25T16:59:53.221Z,90.90
2019-03-25T17:02:21.951Z,90.60
2019-03-25T17:04:50.430Z,90.00
2019-03-25T17:07:19.073Z,90.30
2019-03-25T17:09:47.598Z,90.50
2019-03-25T17:12:16.091Z,90.90
2019-03-25T17:14:44.667Z,90.80
2019-03-25T17:17:13.294Z,91.00
2019-03-25T17:19:41.758Z,91.00
2019-03-25T17:22:10.250Z,91.40
2019-03-25T17:24:38.707Z,91.30
2019-03-25T17:27:07.210Z,92.10
2019-03-25T17:29:35.750Z,92.40
2019-03-25T17:32:04.278Z,94.10
2019-03-25T17:34:32.845Z,94.60
2019-03-25T17:37:01.342Z,95.00
2019-03-25T17:39:29.803Z,95.30
2019-03-25T17:41:58.330Z,95.30
2019-03-25T17:44:26.928Z,95.00
2019-03-25T17:46:55.447Z,95.20
2019-03-25T17:49:24.002Z,95.10
2019-03-25T17:51:52.502Z,95.20
2019-03-25T17:54:20.973Z,95.40
2019-03-25T17:56:49.542Z,95.30
2019-03-25T17:59:18.123Z,95.60
2019-03-25T18:01:46.651Z,95.90
2019-03-25T18:04:15.138Z,95.90
2019-03-25T18:06:43.766Z,95.20
2019-03-25T18:09:12.483Z,95.40
2019-03-25T18:11:40.942Z,95.00
2019-03-25T18:14:09.443Z,95.30
2019-03-25T18:16:37.975Z,95.40
2019-03-25T18:19:06.958Z,95.40
2019-03-25T18:21:35.497Z,95.70
2019-03-25T18:24:04.191Z,95.90
2019-03-25T18:26:32.651Z,96.70
2019-03-25T18:29:01.119Z,97.40
2019-03-25T18:31:29.691Z,98.00
2019-03-25T18:33:58.423Z,97.80
2019-03-25T18:36:26.982Z,97.90
2019-03-25T18:38:55.525Z,98.70
2019-03-25T18:41:24.087Z,99.30
2019-03-25T18:43:52.842Z,99.00
2019-03-25T18:46:21.689Z,98.70
2019-03-25T18:48:50.372Z,98.30
2019-03-25T18:51:18.987Z,98.20
2019-03-25T18:53:47.448Z,98.20
2019-03-25T18:56:16.142Z,98.00
2019-03-25T18:58:45.121Z,97.80
2019-03-25T19:01:13.726Z,97.70
2019-03-25T19:03:42.415Z,97.80
2019-03-25T19:06:10.873Z,97.10
2019-03-25T19:08:39.491Z,97.00
2019-03-25T19:11:08.062Z,97.20
2019-03-25T19:13:36.562Z,97.00
2019-03-25T19:16:05.108Z,96.60
2019-03-25T19:18:33.622Z,96.60
2019-03-25T19:21:02.214Z,96.90
2019-03-25T19:23:30.814Z,96.90
2019-03-25T19:25:59.295Z,97.30
2019-03-25T19:28:27.803Z,97.00
2019-03-25T19:30:56.374Z,96.90
2019-03-25T19:33:24.981Z,97.00
2019-03-25T19:35:53.531Z,97.10
2019-03-25T19:38:22.120Z,97.00
2019-03-25T19:40:51.539Z,97.10
2019-03-25T19:43:20.070Z,97.20
2019-03-25T19:45:48.563Z,97.00
2019-03-25T19:48:17.300Z,96.90
2019-03-25T19:50:45.914Z,96.60
2019-03-25T19:53:19.343Z,96.30
2019-03-25T19:55:44.714Z,96.50
2019-03-25T19:58:13.203Z,96.50
2019-03-25T20:00:41.882Z,97.10
2019-03-25T20:03:10.499Z,96.90
2019-03-25T20:05:39.157Z,97.10
2019-03-25T20:08:07.748Z,97.30
2019-03-25T20:10:37.874Z,97.40
2019-03-25T20:13:06.847Z,97.70
2019-03-25T20:15:45.410Z,98.10
2019-03-25T20:18:05.743Z,97.80
2019-03-25T20:20:34.242Z,97.90
2019-03-25T20:23:02.772Z,98.00
2019-03-25T20:25:31.450Z,98.30
2019-03-25T20:27:59.983Z,98.60
2019-03-25T20:30:28.580Z,99.10
2019-03-25T20:32:57.240Z,99.20
2019-03-25T20:35:25.921Z,99.10
2019-03-25T20:37:54.502Z,98.50
2019-03-25T20:40:22.969Z,98.00
2019-03-25T20:42:51.554Z,97.70
2019-03-25T20:45:20.098Z,97.90
2019-03-25T20:47:48.676Z,97.70
2019-03-25T20:50:17.376Z,98.00
2019-03-25T20:52:45.879Z,98.30
2019-03-25T20:55:14.535Z,98.50
2019-03-25T20:57:43.043Z,98.60
2019-03-25T21:00:12.787Z,98.90
2019-03-25T21:02:45.309Z,99.20
2019-03-25T21:05:11.919Z,99.40
2019-03-25T21:07:40.450Z,99.20
2019-03-25T21:10:09.426Z,99.20
2019-03-25T21:12:38.790Z,99.10
2019-03-25T21:15:08.981Z,99.40
2019-03-25T21:17:37.547Z,99.60
2019-03-25T21:20:07.845Z,99.70
2019-03-25T21:22:36.557Z,99.60
2019-03-25T21:25:07.008Z,99.70
2019-03-25T21:27:35.547Z,99.60
2019-03-25T21:30:05.853Z,99.60
2019-03-25T21:32:34.494Z,99.60
2019-03-25T21:35:03.112Z,99.40
2019-03-25T21:37:31.746Z,99.60
2019-03-25T21:40:00.449Z,99.60
2019-03-25T21:42:29.479Z,99.70
2019-03-25T21:44:58.002Z,99.60
2019-03-25T21:47:26.691Z,99.40
2019-03-25T21:49:55.473Z,99.30
2019-03-25T21:52:23.983Z,99.10
2019-03-25T21:54:52.535Z,99.00
2019-03-25T21:57:21.156Z,99.20
2019-03-25T21:59:49.695Z,99.30
2019-03-25T22:02:18.170Z,99.30
2019-03-25T22:04:46.654Z,99.10
2019-03-25T22:07:15.179Z,99.40
2019-03-25T22:09:44.014Z,99.40
2019-03-25T22:12:12.542Z,99.60
2019-03-25T22:14:41.179Z,99.50
2019-03-25T22:17:09.732Z,99.40
2019-03-25T22:19:38.202Z,99.30
2019-03-25T22:22:06.683Z,99.10
2019-03-25T22:24:35.140Z,98.50
2019-03-25T22:27:03.702Z,98.20
2019-03-25T22:29:32.165Z,98.00
2019-03-25T22:32:00.690Z,97.90
2019-03-25T22:34:29.175Z,97.30
2019-03-25T22:36:57.661Z,97.30
2019-03-25T22:39:26.114Z,97.10
2019-03-25T22:41:54.599Z,96.90
2019-03-25T22:44:23.058Z,96.80
2019-03-25T22:46:51.588Z,96.20
2019-03-25T22:49:20.139Z,96.20
2019-03-25T22:51:48.603Z,95.40
2019-03-25T22:54:17.101Z,95.60
2019-03-25T22:56:45.564Z,95.50
2019-03-25T22:59:14.094Z,95.60
2019-03-25T23:01:42.726Z,95.30
2019-03-25T23:04:11.279Z,95.10
2019-03-25T23:06:39.738Z,95.10
2019-03-25T23:09:08.942Z,95.00
2019-03-25T23:11:37.438Z,94.90
2019-03-25T23:14:05.894Z,94.60
2019-03-25T23:16:34.378Z,94.80
2019-03-25T23:19:02.838Z,94.70
2019-03-25T23:21:31.322Z,94.90
2019-03-25T23:23:59.783Z,94.80
2019-03-25T23:26:28.350Z,94.80
2019-03-25T23:28:56.812Z,95.00
2019-03-25T23:31:25.342Z,95.10
2019-03-25T23:33:53.827Z,95.30
2019-03-25T23:36:22.384Z,95.50
2019-03-25T23:38:50.934Z,95.80
2019-03-25T23:41:19.468Z,96.00
2019-03-25T23:43:47.950Z,95.90
2019-03-25T23:46:16.581Z,96.00
2019-03-25T23:48:45.142Z,96.30
2019-03-25T23:51:13.602Z,96.40
2019-03-25T23:53:42.086Z,96.60
2019-03-25T23:56:10.550Z,96.70
2019-03-25T23:58:39.010Z,96.60
